createdAt,value
2019-02-08T00:02:09.195Z,101707.00
2019-02-08T00:04:39.088Z,101694.78
2019-02-08T00:07:09.019Z,101697.72
2019-02-08T00:09:38.865Z,101690.61
2019-02-08T00:12:08.727Z,101695.20
2019-02-08T00:14:38.700Z,101693.59
2019-02-08T00:17:08.413Z,101692.09
2019-02-08T00:19:38.284Z,101683.95
2019-02-08T00:22:09.508Z,101686.95
2019-02-08T00:24:39.258Z,101689.64
2019-02-08T00:27:08.927Z,101691.30
2019-02-08T00:29:38.585Z,101686.84
2019-02-08T00:32:08.518Z,101682.19
2019-02-08T00:34:38.233Z,101684.76
2019-02-08T00:37:07.920Z,101679.31
2019-02-08T00:39:38.992Z,101687.92
2019-02-08T00:42:08.887Z,101683.67
2019-02-08T00:44:38.880Z,101684.64
2019-02-08T00:47:08.615Z,101675.54
2019-02-08T00:49:38.327Z,101668.15
2019-02-08T00:52:08.186Z,101663.94
2019-02-08T00:54:37.960Z,101667.24
2019-02-08T00:57:07.660Z,101672.91
2019-02-08T00:59:37.650Z,101675.84
2019-02-08T01:02:08.938Z,101673.45
2019-02-08T01:04:38.639Z,101658.01
2019-02-08T01:07:08.948Z,101666.27
2019-02-08T01:09:38.866Z,101666.93
2019-02-08T01:12:08.824Z,101658.98
2019-02-08T01:14:38.677Z,101654.95
2019-02-08T01:17:08.545Z,101659.23
2019-02-08T01:19:38.374Z,101649.81
2019-02-08T01:22:08.342Z,101656.00
2019-02-08T01:24:38.494Z,101650.37
2019-02-08T01:27:08.655Z,101637.25
2019-02-08T01:29:39.813Z,101642.06
2019-02-08T01:32:09.599Z,101641.41
2019-02-08T01:34:39.523Z,101645.85
2019-02-08T01:37:09.367Z,101641.53
2019-02-08T01:39:39.040Z,101652.27
2019-02-08T01:42:09.085Z,101640.37
2019-02-08T01:44:38.940Z,101634.45
2019-02-08T01:47:08.681Z,101620.76
2019-02-08T01:49:39.235Z,101626.31
2019-02-08T01:52:09.015Z,101628.88
2019-02-08T01:54:39.025Z,101625.09
2019-02-08T01:57:09.116Z,101628.45
2019-02-08T01:59:38.866Z,101636.64
2019-02-08T02:02:08.785Z,101630.16
2019-02-08T02:04:38.537Z,101629.74
2019-02-08T02:07:08.653Z,101625.95
2019-02-08T02:09:38.545Z,101627.30
2019-02-08T02:12:08.571Z,101602.93
2019-02-08T02:14:38.406Z,101623.55
2019-02-08T02:17:08.300Z,101621.30
2019-02-08T02:19:38.211Z,101618.74
2019-02-08T02:22:08.484Z,101608.62
2019-02-08T02:24:38.466Z,101619.23
2019-02-08T02:27:08.584Z,101613.69
2019-02-08T02:29:38.288Z,101615.77
2019-02-08T02:32:08.043Z,101618.02
2019-02-08T02:34:37.805Z,101623.61
2019-02-08T02:37:07.611Z,101606.11
2019-02-08T02:39:37.661Z,101610.00
2019-02-08T02:42:07.718Z,101602.30
2019-02-08T02:44:37.606Z,101607.88
2019-02-08T02:47:07.508Z,101613.75
2019-02-08T02:49:37.395Z,101604.78
2019-02-08T02:52:07.269Z,101593.34
2019-02-08T02:54:37.252Z,101614.66
2019-02-08T02:57:07.171Z,101618.45
2019-02-08T02:59:36.899Z,101625.32
2019-02-08T03:02:06.971Z,101615.07
2019-02-08T03:04:36.687Z,101607.02
2019-02-08T03:07:06.881Z,101607.38
2019-02-08T03:09:36.538Z,101614.70
2019-02-08T03:12:06.340Z,101615.62
2019-02-08T03:14:36.007Z,101610.81
2019-02-08T03:17:05.763Z,101613.36
2019-02-08T03:19:36.736Z,101607.33
2019-02-08T03:22:06.621Z,101619.34
2019-02-08T03:24:36.309Z,101615.51
2019-02-08T03:27:06.237Z,101604.83
2019-02-08T03:29:35.859Z,101621.11
2019-02-08T03:32:06.063Z,101620.62
2019-02-08T03:34:36.661Z,101620.25
2019-02-08T03:37:06.645Z,101608.72
2019-02-08T03:39:36.472Z,101621.11
2019-02-08T03:42:06.416Z,101606.16
2019-02-08T03:44:36.408Z,101604.39
2019-02-08T03:47:06.209Z,101607.97
2019-02-08T03:49:36.071Z,101610.53
2019-02-08T03:52:05.825Z,101608.77
2019-02-08T03:54:35.681Z,101622.02
2019-02-08T03:57:05.396Z,101620.67
2019-02-08T03:59:36.315Z,101610.53
2019-02-08T04:02:06.409Z,101609.16
2019-02-08T04:04:36.908Z,101614.23
2019-02-08T04:07:06.756Z,101609.16
2019-02-08T04:09:36.504Z,101621.11
2019-02-08T04:12:06.543Z,101613.31
2019-02-08T04:14:36.432Z,101606.05
2019-02-08T04:17:06.347Z,101612.93
2019-02-08T04:19:36.173Z,101612.93
2019-02-08T04:22:05.959Z,101608.67
2019-02-08T04:24:35.772Z,101615.56
2019-02-08T04:27:05.644Z,101610.38
2019-02-08T04:29:35.403Z,101609.05
2019-02-08T04:32:05.415Z,101605.25
2019-02-08T04:34:35.288Z,101603.00
2019-02-08T04:37:05.040Z,101618.02
2019-02-08T04:39:34.764Z,101633.44
2019-02-08T04:42:04.623Z,101615.88
2019-02-08T04:44:34.597Z,101622.81
2019-02-08T04:47:04.505Z,101618.80
2019-02-08T04:49:34.596Z,101617.05
2019-02-08T04:52:04.373Z,101614.97
2019-02-08T04:54:38.439Z,101612.50
2019-02-08T04:57:07.487Z,101614.54
2019-02-08T04:59:37.236Z,101613.55
2019-02-08T05:02:07.207Z,101611.61
2019-02-08T05:04:37.065Z,101621.00
2019-02-08T05:07:06.824Z,101612.93
2019-02-08T05:09:36.683Z,101614.64
2019-02-08T05:12:06.564Z,101614.12
2019-02-08T05:14:36.353Z,101615.39
2019-02-08T05:17:06.030Z,101614.84
2019-02-08T05:19:35.812Z,101606.19
2019-02-08T05:22:06.030Z,101615.76
2019-02-08T05:24:35.960Z,101615.39
2019-02-08T05:27:06.035Z,101614.53
2019-02-08T05:29:35.762Z,101620.27
2019-02-08T05:32:05.949Z,101615.44
2019-02-08T05:34:35.687Z,101614.05
2019-02-08T05:37:05.823Z,101630.23
2019-02-08T05:39:37.478Z,101622.27
2019-02-08T05:42:07.423Z,101625.63
2019-02-08T05:44:37.095Z,101622.84
2019-02-08T05:47:07.101Z,101626.27
2019-02-08T05:49:36.862Z,101627.47
2019-02-08T05:52:06.858Z,101630.30
2019-02-08T05:54:36.710Z,101632.84
2019-02-08T05:57:06.579Z,101636.94
2019-02-08T05:59:36.713Z,101634.81
2019-02-08T06:02:07.048Z,101630.41
2019-02-08T06:04:36.759Z,101633.78
2019-02-08T06:07:06.756Z,101636.47
2019-02-08T06:09:36.531Z,101634.64
2019-02-08T06:12:06.333Z,101633.05
2019-02-08T06:14:36.338Z,101641.82
2019-02-08T06:17:06.341Z,101640.50
2019-02-08T06:19:36.409Z,101635.34
2019-02-08T06:22:06.477Z,101640.28
2019-02-08T06:24:36.087Z,101638.04
2019-02-08T06:27:06.111Z,101647.75
2019-02-08T06:29:35.916Z,101645.99
2019-02-08T06:32:05.975Z,101643.41
2019-02-08T06:34:35.914Z,101644.63
2019-02-08T06:37:05.969Z,101648.53
2019-02-08T06:39:35.880Z,101636.22
2019-02-08T06:42:06.063Z,101652.27
2019-02-08T06:44:35.725Z,101657.09
2019-02-08T06:47:05.646Z,101667.77
2019-02-08T06:49:35.508Z,101659.91
2019-02-08T06:52:05.480Z,101658.44
2019-02-08T06:54:35.453Z,101656.19
2019-02-08T06:57:27.280Z,101673.30
2019-02-08T07:00:05.324Z,101665.41
2019-02-08T07:02:43.993Z,101672.38
2019-02-08T07:05:38.933Z,101671.21
2019-02-08T07:08:33.611Z,101671.80
2019-02-08T07:11:28.169Z,101667.11
2019-02-08T07:14:16.618Z,101663.68
2019-02-08T07:16:58.880Z,101668.11
2019-02-08T07:20:05.644Z,101662.40
2019-02-08T07:22:54.356Z,101669.25
2019-02-08T07:25:37.544Z,101666.05
2019-02-08T07:28:29.030Z,101666.75
2019-02-08T07:31:13.331Z,101672.72
2019-02-08T07:34:11.272Z,101673.25
2019-02-08T07:37:00.302Z,101668.05
2019-02-08T07:39:59.315Z,101672.08
2019-02-08T07:42:42.482Z,101671.69
2019-02-08T07:45:34.511Z,101665.16
2019-02-08T07:48:17.770Z,101671.13
2019-02-08T07:50:53.662Z,101674.63
2019-02-08T07:53:42.612Z,101668.29
2019-02-08T07:56:34.647Z,101677.00
2019-02-08T07:59:35.937Z,101680.85
2019-02-08T08:02:11.762Z,101683.09
2019-02-08T08:04:58.523Z,101678.20
2019-02-08T08:07:35.064Z,101673.48
2019-02-08T08:10:22.611Z,101678.64
2019-02-08T08:13:11.530Z,101680.77
2019-02-08T08:16:02.549Z,101672.95
2019-02-08T08:19:04.087Z,101677.34
2019-02-08T08:21:51.645Z,101676.01
2019-02-08T08:24:44.605Z,101676.84
2019-02-08T08:27:28.600Z,101678.58
2019-02-08T08:30:33.959Z,101687.05
2019-02-08T08:33:17.169Z,101688.06
2019-02-08T08:36:39.445Z,101678.05
2019-02-08T08:39:49.986Z,101678.17
2019-02-08T08:42:59.584Z,101682.25
2019-02-08T08:46:09.274Z,101685.66
2019-02-08T08:49:16.694Z,101686.16
2019-02-08T08:52:28.775Z,101689.66
2019-02-08T08:55:42.600Z,101679.33
2019-02-08T08:58:40.355Z,101683.47
2019-02-08T09:01:52.058Z,101694.77
2019-02-08T09:05:08.255Z,101697.14
2019-02-08T09:08:29.409Z,101690.16
2019-02-08T09:11:54.990Z,101691.03
2019-02-08T09:15:20.369Z,101691.05
2019-02-08T09:18:45.818Z,101680.52
2019-02-08T09:21:57.574Z,101679.21
2019-02-08T09:24:57.705Z,101685.16
2019-02-08T09:27:58.462Z,101684.34
2019-02-08T09:31:08.625Z,101690.09
2019-02-08T09:34:17.934Z,101683.80
2019-02-08T09:37:21.390Z,101678.80
2019-02-08T09:40:37.146Z,101681.15
2019-02-08T09:43:59.955Z,101684.45
2019-02-08T09:47:37.444Z,101680.50
2019-02-08T09:50:31.473Z,101687.14
2019-02-08T09:53:41.078Z,101682.48
2019-02-08T09:57:02.295Z,101687.17
2019-02-08T10:00:40.111Z,101679.57
2019-02-08T10:03:40.049Z,101680.59
2019-02-08T10:06:45.578Z,101680.03
2019-02-08T10:09:52.120Z,101683.73
2019-02-08T10:12:58.331Z,101681.37
2019-02-08T10:16:20.927Z,101675.02
2019-02-08T10:19:58.882Z,101669.92
2019-02-08T10:23:02.027Z,101667.81
2019-02-08T10:26:13.726Z,101666.45
2019-02-08T10:29:26.396Z,101661.00
2019-02-08T10:32:31.604Z,101657.91
2019-02-08T10:35:49.387Z,101657.05
2019-02-08T10:39:05.759Z,101647.54
2019-02-08T10:42:37.255Z,101637.80
2019-02-08T10:45:59.966Z,101641.58
2019-02-08T10:49:06.135Z,101630.02
2019-02-08T10:52:46.747Z,101632.11
2019-02-08T10:55:51.645Z,101623.75
2019-02-08T10:59:00.527Z,101620.41
2019-02-08T11:02:23.445Z,101612.45
2019-02-08T11:05:35.475Z,101610.13
2019-02-08T11:08:42.781Z,101607.91
2019-02-08T11:12:01.027Z,101607.53
2019-02-08T11:15:04.065Z,101608.03
2019-02-08T11:18:19.358Z,101596.55
2019-02-08T11:20:49.196Z,101584.63
2019-02-08T11:23:19.183Z,101585.36
2019-02-08T11:25:49.029Z,101583.77
2019-02-08T11:28:18.940Z,101586.35
2019-02-08T11:30:48.801Z,101588.91
2019-02-08T11:33:18.701Z,101580.91
2019-02-08T11:35:48.397Z,101594.58
2019-02-08T11:38:19.341Z,101592.75
2019-02-08T11:40:50.316Z,101582.87
2019-02-08T11:43:20.023Z,101583.20
2019-02-08T11:45:49.738Z,101584.08
2019-02-08T11:48:19.629Z,101581.31
2019-02-08T11:50:49.430Z,101589.42
2019-02-08T11:53:19.385Z,101583.06
2019-02-08T11:55:49.215Z,101586.15
2019-02-08T11:58:19.075Z,101582.98
2019-02-08T12:00:52.366Z,101581.67
2019-02-08T12:03:22.380Z,101586.13
2019-02-08T12:05:52.221Z,101571.45
2019-02-08T12:08:22.034Z,101566.67
2019-02-08T12:10:51.910Z,101567.24
2019-02-08T12:13:21.646Z,101573.98
2019-02-08T12:15:51.478Z,101576.67
2019-02-08T12:18:21.425Z,101569.56
2019-02-08T12:20:51.418Z,101566.85
2019-02-08T12:23:21.238Z,101566.27
2019-02-08T12:25:51.719Z,101570.28
2019-02-08T12:28:21.557Z,101569.69
2019-02-08T12:30:51.379Z,101575.38
2019-02-08T12:33:21.258Z,101571.94
2019-02-08T12:35:50.909Z,101584.73
2019-02-08T12:38:20.613Z,101584.88
2019-02-08T12:40:50.468Z,101586.73
2019-02-08T12:43:20.341Z,101582.08
2019-02-08T12:45:50.256Z,101581.77
2019-02-08T12:48:19.985Z,101595.44
2019-02-08T12:50:50.037Z,101591.16
2019-02-08T12:53:19.719Z,101590.84
2019-02-08T12:55:50.460Z,101590.20
2019-02-08T12:58:20.216Z,101591.12
2019-02-08T13:00:53.870Z,101585.22
2019-02-08T13:03:23.838Z,101585.76
2019-02-08T13:05:53.664Z,101589.98
2019-02-08T13:08:23.499Z,101578.03
2019-02-08T13:10:53.335Z,101587.47
2019-02-08T13:13:23.187Z,101593.25
2019-02-08T13:15:52.840Z,101592.56
2019-02-08T13:18:23.796Z,101589.19
2019-02-08T13:20:53.514Z,101600.38
2019-02-08T13:23:23.320Z,101602.75
2019-02-08T13:25:53.506Z,101594.61
2019-02-08T13:28:23.467Z,101599.61
2019-02-08T13:30:53.289Z,101597.11
2019-02-08T13:33:23.136Z,101598.58
2019-02-08T13:35:52.888Z,101611.54
2019-02-08T13:38:22.518Z,101599.17
2019-02-08T13:40:52.480Z,101598.64
2019-02-08T13:43:22.125Z,101609.95
2019-02-08T13:45:51.939Z,101599.95
2019-02-08T13:48:23.043Z,101609.44
2019-02-08T13:50:52.872Z,101605.16
2019-02-08T13:53:22.706Z,101592.60
2019-02-08T13:55:52.362Z,101621.66
2019-02-08T13:58:23.279Z,101614.34
2019-02-08T14:00:53.182Z,101619.17
2019-02-08T14:03:23.159Z,101607.36
2019-02-08T14:05:53.134Z,101621.34
2019-02-08T14:08:23.158Z,101625.20
2019-02-08T14:10:53.105Z,101613.32
2019-02-08T14:13:22.776Z,101627.38
2019-02-08T14:15:52.702Z,101635.54
2019-02-08T14:18:22.553Z,101627.31
2019-02-08T14:20:52.414Z,101633.14
2019-02-08T14:23:22.234Z,101612.21
2019-02-08T14:25:51.993Z,101639.70
2019-02-08T14:28:21.802Z,101633.78
2019-02-08T14:30:51.679Z,101630.91
2019-02-08T14:33:21.821Z,101637.03
2019-02-08T14:35:51.662Z,101642.73
2019-02-08T14:38:22.757Z,101630.81
2019-02-08T14:40:52.565Z,101623.87
2019-02-08T14:43:22.322Z,101625.80
2019-02-08T14:45:52.200Z,101637.58
2019-02-08T14:48:22.032Z,101642.65
2019-02-08T14:50:51.866Z,101636.79
2019-02-08T14:53:21.643Z,101640.67
2019-02-08T14:55:51.467Z,101640.37
2019-02-08T14:58:21.552Z,101646.56
2019-02-08T15:00:52.424Z,101649.11
2019-02-08T15:03:22.402Z,101646.13
2019-02-08T15:05:52.446Z,101638.69
2019-02-08T15:08:22.272Z,101643.34
2019-02-08T15:10:52.385Z,101646.83
2019-02-08T15:13:22.381Z,101654.13
2019-02-08T15:15:52.130Z,101642.50
2019-02-08T15:18:22.053Z,101648.16
2019-02-08T15:20:52.018Z,101661.98
2019-02-08T15:23:23.232Z,101657.02
2019-02-08T15:25:52.925Z,101662.94
2019-02-08T15:28:22.949Z,101660.86
2019-02-08T15:30:54.001Z,101665.41
2019-02-08T15:33:23.815Z,101653.48
2019-02-08T15:35:53.712Z,101668.57
2019-02-08T15:38:23.665Z,101667.80
2019-02-08T15:40:55.366Z,101666.53
2019-02-08T15:43:26.087Z,101655.38
2019-02-08T15:45:58.492Z,101674.98
2019-02-08T15:48:28.303Z,101675.97
2019-02-08T15:50:58.083Z,101668.22
2019-02-08T15:53:28.058Z,101676.80
2019-02-08T15:56:01.836Z,101674.69
2019-02-08T15:58:32.906Z,101678.95
2019-02-08T16:01:02.935Z,101679.72
2019-02-08T16:03:32.745Z,101686.33
2019-02-08T16:06:02.694Z,101684.19
2019-02-08T16:08:32.569Z,101689.81
2019-02-08T16:11:02.599Z,101690.67
2019-02-08T16:13:32.436Z,101696.61
2019-02-08T16:16:02.425Z,101694.99
2019-02-08T16:18:32.447Z,101705.91
2019-02-08T16:21:02.379Z,101694.80
2019-02-08T16:23:32.214Z,101697.45
2019-02-08T16:26:02.018Z,101717.55
2019-02-08T16:28:32.005Z,101718.86
2019-02-08T16:31:02.208Z,101714.72
2019-02-08T16:33:33.180Z,101725.00
2019-02-08T16:36:04.320Z,101727.36
2019-02-08T16:38:34.314Z,101720.30
2019-02-08T16:41:04.690Z,101725.69
2019-02-08T16:43:35.729Z,101732.21
2019-02-08T16:46:06.207Z,101732.03
2019-02-08T16:48:36.239Z,101732.26
2019-02-08T16:51:06.579Z,101738.47
2019-02-08T16:53:36.405Z,101734.77
2019-02-08T16:56:06.928Z,101740.75
2019-02-08T16:58:36.780Z,101735.69
2019-02-08T17:01:07.391Z,101728.44
2019-02-08T17:03:37.190Z,101741.05
2019-02-08T17:06:07.139Z,101740.20
2019-02-08T17:08:37.333Z,101739.20
2019-02-08T17:11:07.483Z,101749.47
2019-02-08T17:13:37.476Z,101744.07
2019-02-08T17:16:07.883Z,101743.36
2019-02-08T17:18:39.025Z,101746.84
2019-02-08T17:21:08.847Z,101742.84
2019-02-08T17:23:38.679Z,101757.03
2019-02-08T17:26:09.850Z,101747.61
2019-02-08T17:28:39.752Z,101758.81
2019-02-08T17:31:10.064Z,101757.03
2019-02-08T17:33:39.921Z,101752.39
2019-02-08T17:36:09.586Z,101767.02
2019-02-08T17:38:39.520Z,101764.74
2019-02-08T17:41:09.588Z,101764.01
2019-02-08T17:43:39.337Z,101759.61
2019-02-08T17:46:09.187Z,101772.10
2019-02-08T17:48:38.964Z,101765.81
2019-02-08T17:51:08.769Z,101778.22
2019-02-08T17:53:39.948Z,101777.84
2019-02-08T17:56:09.834Z,101781.34
2019-02-08T17:58:39.740Z,101776.03
2019-02-08T18:01:09.609Z,101782.00
2019-02-08T18:03:39.381Z,101785.06
2019-02-08T18:06:09.195Z,101797.59
2019-02-08T18:08:39.147Z,101789.65
2019-02-08T18:11:09.021Z,101784.15
2019-02-08T18:13:38.838Z,101778.59
2019-02-08T18:16:08.687Z,101784.64
2019-02-08T18:18:38.469Z,101780.92
2019-02-08T18:21:10.624Z,101785.70
2019-02-08T18:23:40.395Z,101785.75
2019-02-08T18:26:10.393Z,101791.63
2019-02-08T18:28:40.087Z,101789.19
2019-02-08T18:31:09.906Z,101785.63
2019-02-08T18:33:39.780Z,101790.46
2019-02-08T18:36:09.521Z,101786.55
2019-02-08T18:38:39.346Z,101779.34
2019-02-08T18:41:09.202Z,101788.26
2019-02-08T18:43:39.079Z,101793.95
2019-02-08T18:46:08.991Z,101781.53
2019-02-08T18:48:38.765Z,101790.47
2019-02-08T18:51:08.752Z,101772.56
2019-02-08T18:53:38.650Z,101784.66
2019-02-08T18:56:09.703Z,101788.50
2019-02-08T18:58:39.490Z,101797.00
2019-02-08T19:01:09.310Z,101791.06
2019-02-08T19:03:39.168Z,101791.62
2019-02-08T19:06:09.071Z,101794.92
2019-02-08T19:08:38.875Z,101792.47
2019-02-08T19:11:08.914Z,101790.64
2019-02-08T19:13:38.685Z,101784.34
2019-02-08T19:16:08.700Z,101774.58
2019-02-08T19:18:38.456Z,101786.16
2019-02-08T19:21:08.322Z,101788.31
2019-02-08T19:23:38.161Z,101786.61
2019-02-08T19:26:09.235Z,101787.40
2019-02-08T19:28:39.125Z,101800.23
2019-02-08T19:31:09.009Z,101797.72
2019-02-08T19:33:38.896Z,101799.12
2019-02-08T19:36:08.550Z,101795.23
2019-02-08T19:38:38.372Z,101802.00
2019-02-08T19:41:08.225Z,101808.53
2019-02-08T19:43:37.998Z,101809.44
2019-02-08T19:46:08.278Z,101812.44
2019-02-08T19:48:38.466Z,101817.69
2019-02-08T19:51:08.151Z,101806.89
2019-02-08T19:53:38.341Z,101810.88
2019-02-08T19:56:08.104Z,101813.94
2019-02-08T19:58:38.065Z,101817.45
2019-02-08T20:01:08.254Z,101813.23
2019-02-08T20:03:38.040Z,101808.58
2019-02-08T20:06:08.619Z,101823.16
2019-02-08T20:08:38.793Z,101815.09
2019-02-08T20:11:08.607Z,101821.08
2019-02-08T20:13:38.480Z,101828.00
2019-02-08T20:16:08.331Z,101815.23
2019-02-08T20:18:38.043Z,101823.39
2019-02-08T20:21:07.917Z,101822.59
2019-02-08T20:23:37.907Z,101826.95
2019-02-08T20:26:07.920Z,101822.63
2019-02-08T20:28:42.609Z,101822.20
2019-02-08T20:31:12.348Z,101820.45
2019-02-08T20:33:42.267Z,101820.58
2019-02-08T20:36:12.048Z,101825.66
2019-02-08T20:38:41.920Z,101813.80
2019-02-08T20:41:11.934Z,101813.02
2019-02-08T20:43:42.111Z,101817.28
2019-02-08T20:46:12.275Z,101814.25
2019-02-08T20:48:42.498Z,101817.33
2019-02-08T20:51:12.452Z,101815.66
2019-02-08T20:53:42.111Z,101819.62
2019-02-08T20:56:11.924Z,101815.27
2019-02-08T20:58:49.827Z,101816.16
2019-02-08T21:01:13.614Z,101817.83
2019-02-08T21:03:43.516Z,101816.63
2019-02-08T21:06:14.606Z,101812.86
2019-02-08T21:08:44.378Z,101813.45
2019-02-08T21:11:14.190Z,101810.02
2019-02-08T21:13:44.028Z,101807.52
2019-02-08T21:16:15.174Z,101820.72
2019-02-08T21:18:44.866Z,101807.52
2019-02-08T21:21:14.906Z,101813.98
2019-02-08T21:23:45.072Z,101807.16
2019-02-08T21:26:14.908Z,101814.38
2019-02-08T21:28:44.628Z,101813.50
2019-02-08T21:31:14.603Z,101813.00
2019-02-08T21:33:44.364Z,101808.77
2019-02-08T21:36:14.507Z,101803.25
2019-02-08T21:38:45.459Z,101805.02
2019-02-08T21:41:15.137Z,101800.39
2019-02-08T21:43:45.181Z,101807.28
2019-02-08T21:46:15.034Z,101799.20
2019-02-08T21:48:44.688Z,101803.92
2019-02-08T21:51:14.620Z,101799.36
2019-02-08T21:53:44.463Z,101803.17
2019-02-08T21:56:14.229Z,101809.12
2019-02-08T21:58:44.088Z,101805.39
2019-02-08T22:01:14.389Z,101805.43
2019-02-08T22:03:44.354Z,101798.22
2019-02-08T22:06:14.101Z,101802.06
2019-02-08T22:08:43.942Z,101804.12
2019-02-08T22:11:13.874Z,101801.62
2019-02-08T22:13:43.643Z,101810.58
2019-02-08T22:16:13.465Z,101812.66
2019-02-08T22:18:43.437Z,101809.68
2019-02-08T22:21:13.202Z,101810.98
2019-02-08T22:23:43.057Z,101812.66
2019-02-08T22:26:12.821Z,101819.47
2019-02-08T22:28:42.625Z,101822.85
2019-02-08T22:31:12.677Z,101821.59
2019-02-08T22:33:42.485Z,101817.72
2019-02-08T22:36:12.687Z,101817.44
2019-02-08T22:38:42.674Z,101820.36
2019-02-08T22:41:12.581Z,101818.67
2019-02-08T22:43:42.250Z,101818.20
2019-02-08T22:46:12.045Z,101821.60
2019-02-08T22:48:41.800Z,101824.98
2019-02-08T22:51:11.773Z,101821.60
2019-02-08T22:53:41.514Z,101816.55
2019-02-08T22:56:11.477Z,101818.67
2019-02-08T22:58:41.226Z,101817.84
2019-02-08T23:01:39.111Z,101813.99
2019-02-08T23:04:09.236Z,101812.75
2019-02-08T23:06:44.465Z,101812.28
2019-02-08T23:09:23.819Z,101821.23
2019-02-08T23:11:53.950Z,101816.95
2019-02-08T23:14:24.165Z,101812.27
2019-02-08T23:16:54.087Z,101812.24
2019-02-08T23:19:24.089Z,101818.69
2019-02-08T23:21:55.248Z,101824.31
2019-02-08T23:24:25.212Z,101825.61
2019-02-08T23:26:54.873Z,101827.72
2019-02-08T23:29:29.923Z,101828.58
2019-02-08T23:31:56.918Z,101830.83
2019-02-08T23:34:26.741Z,101837.61
2019-02-08T23:36:56.760Z,101839.34
2019-02-08T23:39:26.968Z,101832.55
2019-02-08T23:41:56.797Z,101830.88
2019-02-08T23:44:26.939Z,101839.36
2019-02-08T23:46:56.722Z,101835.11
2019-02-08T23:49:26.409Z,101836.39
2019-02-08T23:51:56.392Z,101832.11
2019-02-08T23:54:27.561Z,101841.50
2019-02-08T23:56:57.455Z,101841.49
2019-02-08T23:59:27.253Z,101840.23
